createdAt,value
2022-09-25T00:00:43.081Z,40.40
2022-09-25T00:03:11.006Z,40.05
2022-09-25T00:05:40.837Z,40.83
2022-09-25T00:08:07.304Z,40.20
2022-09-25T00:10:33.551Z,42.22
2022-09-25T00:12:59.771Z,44.50
2022-09-25T00:15:26.240Z,37.15
2022-09-25T00:17:52.449Z,42.90
2022-09-25T00:20:20.480Z,40.13
2022-09-25T00:22:47.278Z,40.63
2022-09-25T00:25:14.351Z,44.97
2022-09-25T00:27:41.448Z,39.78
2022-09-25T00:30:08.395Z,41.85
2022-09-25T00:32:34.725Z,44.08
2022-09-25T00:35:00.947Z,42.30
2022-09-25T00:37:28.463Z,41.35
2022-09-25T00:39:55.113Z,38.88
2022-09-25T00:42:21.890Z,41.85
2022-09-25T00:44:59.054Z,43.97
2022-09-25T00:47:31.910Z,49.03
2022-09-25T00:49:59.090Z,42.85
2022-09-25T00:52:25.606Z,42.53
2022-09-25T00:54:57.643Z,46.00
2022-09-25T00:57:26.935Z,45.60
2022-09-25T00:59:56.623Z,41.28
2022-09-25T01:02:30.538Z,47.22
2022-09-25T01:04:59.700Z,41.85
2022-09-25T01:07:26.000Z,40.17
2022-09-25T01:09:52.389Z,40.33
2022-09-25T01:12:18.641Z,37.47
2022-09-25T01:14:44.903Z,38.53
2022-09-25T01:17:19.982Z,42.28
2022-09-25T01:19:50.173Z,40.53
2022-09-25T01:22:26.284Z,40.58
2022-09-25T01:25:12.006Z,43.88
2022-09-25T01:27:41.932Z,38.25
2022-09-25T01:30:10.095Z,34.75
2022-09-25T01:32:39.303Z,34.85
2022-09-25T01:35:24.244Z,33.90
2022-09-25T01:37:55.058Z,31.50
2022-09-25T01:40:27.578Z,32.20
2022-09-25T01:42:57.686Z,26.25
2022-09-25T01:45:28.509Z,31.85
2022-09-25T01:47:57.060Z,30.00
2022-09-25T01:50:29.636Z,30.23
2022-09-25T01:52:59.223Z,30.70
2022-09-25T01:55:29.705Z,29.83
2022-09-25T01:57:59.163Z,26.58
2022-09-25T02:00:25.726Z,29.00
2022-09-25T02:02:56.787Z,29.55
2022-09-25T02:05:28.230Z,26.88
2022-09-25T02:07:56.562Z,27.23
2022-09-25T02:10:29.137Z,25.95
2022-09-25T02:12:57.997Z,28.42
2022-09-25T02:15:32.411Z,26.63
2022-09-25T02:18:25.320Z,37.72
2022-09-25T02:21:05.163Z,24.70
2022-09-25T02:23:47.528Z,29.08
2022-09-25T02:26:17.785Z,24.40
2022-09-25T02:28:43.979Z,27.75
2022-09-25T02:31:11.825Z,23.23
2022-09-25T02:33:38.322Z,23.30
2022-09-25T02:36:06.243Z,24.88
2022-09-25T02:38:33.498Z,21.55
2022-09-25T02:41:14.774Z,23.00
2022-09-25T02:44:01.183Z,14.52
2022-09-25T02:46:33.011Z,18.02
2022-09-25T02:49:05.881Z,15.38
2022-09-25T02:51:35.261Z,16.55
2022-09-25T02:54:01.426Z,15.18
2022-09-25T02:57:02.977Z,17.30
2022-09-25T02:59:33.800Z,12.27
2022-09-25T03:02:00.214Z,12.85
2022-09-25T03:04:27.454Z,15.43
2022-09-25T03:06:53.837Z,13.10
2022-09-25T03:09:22.123Z,14.48
2022-09-25T03:11:48.419Z,12.02
2022-09-25T03:14:15.047Z,10.93
2022-09-25T03:16:51.514Z,15.25
2022-09-25T03:19:21.266Z,16.85
2022-09-25T03:21:47.994Z,10.70
2022-09-25T03:24:14.758Z,16.42
2022-09-25T03:26:41.498Z,10.38
2022-09-25T03:29:07.814Z,15.35
2022-09-25T03:31:34.284Z,11.07
2022-09-25T03:34:00.824Z,10.93
2022-09-25T03:36:28.079Z,13.40
2022-09-25T03:38:58.881Z,10.57
2022-09-25T03:41:27.017Z,7.72
2022-09-25T03:43:53.800Z,13.95
2022-09-25T03:46:21.276Z,12.38
2022-09-25T03:48:47.604Z,17.00
2022-09-25T03:51:13.834Z,20.52
2022-09-25T03:53:40.560Z,12.30
2022-09-25T03:56:08.018Z,12.60
2022-09-25T03:58:34.295Z,14.20
2022-09-25T04:01:01.398Z,17.80
2022-09-25T04:03:28.574Z,18.17
2022-09-25T04:05:58.918Z,15.80
2022-09-25T04:08:26.871Z,14.70
2022-09-25T04:10:56.088Z,15.63
2022-09-25T04:13:26.483Z,19.90
2022-09-25T04:15:52.809Z,19.20
2022-09-25T04:18:19.077Z,18.70
2022-09-25T04:20:45.363Z,17.67
2022-09-25T04:23:11.547Z,20.52
2022-09-25T04:25:37.701Z,17.65
2022-09-25T04:28:04.519Z,25.05
2022-09-25T04:30:30.915Z,15.48
2022-09-25T04:33:15.978Z,13.77
2022-09-25T04:35:42.209Z,10.15
2022-09-25T04:38:09.652Z,14.07
2022-09-25T04:40:36.852Z,17.55
2022-09-25T04:43:04.650Z,12.73
2022-09-25T04:45:32.760Z,12.70
2022-09-25T04:47:59.700Z,12.90
2022-09-25T04:50:26.740Z,11.38
2022-09-25T04:52:53.188Z,9.82
2022-09-25T04:55:20.282Z,10.18
2022-09-25T04:57:59.198Z,14.10
2022-09-25T05:00:27.311Z,15.07
2022-09-25T05:02:53.595Z,13.90
2022-09-25T05:05:19.878Z,14.02
2022-09-25T05:07:53.057Z,16.08
2022-09-25T05:10:20.607Z,11.55
2022-09-25T05:12:47.715Z,12.38
2022-09-25T05:15:14.124Z,12.85
2022-09-25T05:17:40.335Z,9.77
2022-09-25T05:20:06.810Z,11.77
2022-09-25T05:22:32.996Z,11.93
2022-09-25T05:24:59.348Z,11.70
2022-09-25T05:27:25.578Z,10.50
2022-09-25T05:29:51.774Z,16.27
2022-09-25T05:32:18.778Z,12.05
2022-09-25T05:34:44.975Z,8.50
2022-09-25T05:37:11.127Z,16.27
2022-09-25T05:39:37.325Z,10.63
2022-09-25T05:42:03.766Z,11.85
2022-09-25T05:44:29.975Z,12.02
2022-09-25T05:46:56.436Z,11.32
2022-09-25T05:49:23.336Z,7.93
2022-09-25T05:51:49.610Z,15.18
2022-09-25T05:54:15.821Z,12.77
2022-09-25T05:56:42.047Z,11.00
2022-09-25T05:59:08.276Z,11.75
2022-09-25T06:01:34.574Z,10.85
2022-09-25T06:04:00.890Z,16.95
2022-09-25T06:06:27.694Z,12.70
2022-09-25T06:08:54.268Z,14.10
2022-09-25T06:11:20.460Z,15.93
2022-09-25T06:13:52.050Z,17.65
2022-09-25T06:16:20.610Z,9.52
2022-09-25T06:18:47.458Z,16.48
2022-09-25T06:21:13.949Z,11.60
2022-09-25T06:23:41.731Z,19.38
2022-09-25T06:26:09.287Z,10.32
2022-09-25T06:28:35.529Z,11.18
2022-09-25T06:31:02.463Z,18.25
2022-09-25T06:33:29.081Z,10.68
2022-09-25T06:35:55.374Z,15.02
2022-09-25T06:38:21.711Z,20.77
2022-09-25T06:40:48.013Z,19.05
2022-09-25T06:43:15.355Z,16.45
2022-09-25T06:45:42.149Z,17.25
2022-09-25T06:48:10.112Z,18.52
2022-09-25T06:50:39.907Z,13.70
2022-09-25T06:53:06.147Z,17.70
2022-09-25T06:55:32.406Z,16.08
2022-09-25T06:57:58.804Z,19.17
2022-09-25T07:00:25.135Z,14.68
2022-09-25T07:03:09.868Z,13.30
2022-09-25T07:05:36.179Z,13.85
2022-09-25T07:08:02.430Z,15.38
2022-09-25T07:10:28.651Z,13.57
2022-09-25T07:12:54.873Z,10.18
2022-09-25T07:15:22.612Z,12.00
2022-09-25T07:17:49.103Z,11.82
2022-09-25T07:20:15.686Z,10.20
2022-09-25T07:22:42.580Z,12.95
2022-09-25T07:25:09.512Z,9.68
2022-09-25T07:27:36.142Z,10.32
2022-09-25T07:30:03.059Z,9.52
2022-09-25T07:32:29.305Z,15.32
2022-09-25T07:34:55.514Z,11.32
2022-09-25T07:37:21.702Z,7.53
2022-09-25T07:39:47.891Z,8.65
2022-09-25T07:42:14.184Z,9.20
2022-09-25T07:44:44.699Z,8.65
2022-09-25T07:47:15.132Z,9.48
2022-09-25T07:49:41.390Z,9.45
2022-09-25T07:52:07.551Z,11.10
2022-09-25T07:54:36.334Z,13.40
2022-09-25T07:57:02.560Z,9.57
2022-09-25T07:59:28.891Z,12.48
2022-09-25T08:01:55.196Z,11.80
2022-09-25T08:04:21.445Z,13.10
2022-09-25T08:06:47.643Z,8.80
2022-09-25T08:09:13.890Z,9.15
2022-09-25T08:11:40.145Z,8.40
2022-09-25T08:14:06.386Z,9.95
2022-09-25T08:16:32.771Z,10.68
2022-09-25T08:18:59.030Z,9.70
2022-09-25T08:21:25.247Z,8.82
2022-09-25T08:23:52.226Z,10.48
2022-09-25T08:26:20.697Z,10.13
2022-09-25T08:28:46.908Z,7.80
2022-09-25T08:31:14.747Z,11.93
2022-09-25T08:33:44.481Z,14.55
2022-09-25T08:36:10.706Z,20.35
2022-09-25T08:38:36.917Z,9.73
2022-09-25T08:41:07.869Z,15.27
2022-09-25T08:43:36.349Z,12.13
2022-09-25T08:46:23.506Z,16.15
2022-09-25T08:49:02.363Z,11.77
2022-09-25T08:51:29.507Z,5.97
2022-09-25T08:53:55.945Z,7.10
2022-09-25T08:56:24.562Z,9.02
2022-09-25T08:59:03.538Z,9.50
2022-09-25T09:01:46.964Z,10.10
2022-09-25T09:04:19.072Z,9.43
2022-09-25T09:06:49.804Z,7.82
2022-09-25T09:09:37.932Z,14.93
2022-09-25T09:12:09.503Z,10.00
2022-09-25T09:14:40.171Z,12.40
2022-09-25T09:17:11.812Z,6.40
2022-09-25T09:19:38.440Z,9.80
2022-09-25T09:22:11.257Z,14.82
2022-09-25T09:24:49.379Z,10.63
2022-09-25T09:27:27.779Z,8.18
2022-09-25T09:30:05.803Z,12.15
2022-09-25T09:32:40.618Z,8.95
2022-09-25T09:35:12.567Z,4.53
2022-09-25T09:37:44.606Z,8.98
2022-09-25T09:40:23.088Z,8.15
2022-09-25T09:42:57.394Z,9.02
2022-09-25T09:45:29.404Z,6.63
2022-09-25T09:48:02.092Z,7.70
2022-09-25T09:50:52.105Z,9.30
2022-09-25T09:53:28.721Z,10.63
2022-09-25T09:55:58.509Z,7.05
2022-09-25T09:58:29.061Z,7.70
2022-09-25T10:00:55.262Z,8.13
2022-09-25T10:03:27.917Z,7.40
2022-09-25T10:05:58.963Z,8.07
2022-09-25T10:08:25.361Z,7.45
2022-09-25T10:10:55.588Z,4.68
2022-09-25T10:13:32.619Z,10.15
2022-09-25T10:16:00.822Z,3.85
2022-09-25T10:18:40.760Z,6.28
2022-09-25T10:21:06.922Z,5.28
2022-09-25T10:23:38.963Z,7.80
2022-09-25T10:26:22.928Z,7.20
2022-09-25T10:28:49.161Z,6.60
2022-09-25T10:31:16.070Z,7.03
2022-09-25T10:33:42.357Z,6.28
2022-09-25T10:36:08.565Z,9.07
2022-09-25T10:38:38.430Z,3.65
2022-09-25T10:41:07.632Z,3.92
2022-09-25T10:43:33.900Z,6.95
2022-09-25T10:46:07.689Z,6.43
2022-09-25T10:48:53.687Z,4.82
2022-09-25T10:51:21.548Z,5.53
2022-09-25T10:53:49.067Z,5.07
2022-09-25T10:56:20.469Z,6.03
2022-09-25T10:58:50.547Z,9.82
2022-09-25T11:01:17.870Z,7.93
2022-09-25T11:03:45.934Z,5.80
2022-09-25T11:06:23.635Z,7.22
2022-09-25T11:08:55.507Z,8.82
2022-09-25T11:11:26.692Z,3.97
2022-09-25T11:13:55.274Z,4.85
2022-09-25T11:16:21.553Z,6.00
2022-09-25T11:18:51.871Z,6.25
2022-09-25T11:21:23.445Z,8.27
2022-09-25T11:23:59.663Z,4.03
2022-09-25T11:26:29.430Z,7.07
2022-09-25T11:29:07.632Z,8.32
2022-09-25T11:31:44.972Z,10.63
2022-09-25T11:34:11.247Z,5.28
2022-09-25T11:36:44.451Z,4.93
2022-09-25T11:39:34.570Z,7.45
2022-09-25T11:42:05.118Z,6.10
2022-09-25T11:44:34.322Z,5.72
2022-09-25T11:47:17.617Z,4.88
2022-09-25T11:49:47.895Z,4.03
2022-09-25T11:52:20.295Z,6.47
2022-09-25T11:55:05.707Z,6.15
2022-09-25T11:57:35.150Z,6.03
2022-09-25T12:00:14.305Z,4.82
2022-09-25T12:02:52.822Z,6.45
2022-09-25T12:05:19.060Z,6.35
2022-09-25T12:08:04.073Z,3.95
2022-09-25T12:10:33.198Z,6.50
2022-09-25T12:13:05.645Z,8.52
2022-09-25T12:16:00.976Z,8.50
2022-09-25T12:18:41.810Z,5.95
2022-09-25T12:21:11.721Z,5.25
2022-09-25T12:23:48.151Z,7.38
2022-09-25T12:26:23.337Z,3.75
2022-09-25T12:29:06.133Z,5.72
2022-09-25T12:31:41.466Z,6.57
2022-09-25T12:34:16.744Z,4.05
2022-09-25T12:36:46.751Z,4.32
2022-09-25T12:39:25.535Z,5.18
2022-09-25T12:41:55.595Z,5.75
2022-09-25T12:44:32.889Z,6.22
2022-09-25T12:47:09.028Z,7.15
2022-09-25T12:49:38.638Z,2.90
2022-09-25T12:52:13.634Z,3.13
2022-09-25T12:54:50.871Z,2.45
2022-09-25T12:57:38.196Z,3.53
2022-09-25T13:00:21.625Z,4.40
2022-09-25T13:02:57.156Z,3.25
2022-09-25T13:05:30.268Z,5.47
2022-09-25T13:08:03.046Z,5.40
2022-09-25T13:10:33.144Z,4.65
2022-09-25T13:13:01.076Z,5.47
2022-09-25T13:15:32.215Z,3.13
2022-09-25T13:17:59.040Z,4.75
2022-09-25T13:20:31.800Z,4.03
2022-09-25T13:23:10.355Z,3.40
2022-09-25T13:26:02.920Z,5.60
2022-09-25T13:28:52.175Z,6.45
2022-09-25T13:31:22.928Z,3.05
2022-09-25T13:34:12.154Z,3.88
2022-09-25T13:36:38.580Z,1.35
2022-09-25T13:39:24.997Z,3.08
2022-09-25T13:41:59.031Z,2.88
2022-09-25T13:44:40.178Z,2.80
2022-09-25T13:47:22.963Z,2.28
2022-09-25T13:50:07.944Z,3.05
2022-09-25T13:52:36.915Z,3.40
2022-09-25T13:55:20.106Z,3.17
2022-09-25T13:57:58.608Z,2.90
2022-09-25T14:00:33.758Z,2.53
2022-09-25T14:03:03.081Z,4.00
2022-09-25T14:05:35.991Z,6.15
2022-09-25T14:08:13.091Z,1.10
2022-09-25T14:10:47.150Z,2.85
2022-09-25T14:13:14.407Z,3.30
2022-09-25T14:15:42.062Z,3.40
2022-09-25T14:18:13.768Z,4.45
2022-09-25T14:20:41.741Z,3.78
2022-09-25T14:23:13.748Z,4.38
2022-09-25T14:25:44.167Z,4.88
2022-09-25T14:28:18.469Z,6.05
2022-09-25T14:31:08.033Z,4.22
2022-09-25T14:33:36.125Z,4.93
2022-09-25T14:36:02.352Z,4.97
2022-09-25T14:38:38.781Z,3.58
2022-09-25T14:41:25.587Z,3.95
2022-09-25T14:43:54.859Z,1.50
2022-09-25T14:46:21.883Z,3.95
2022-09-25T14:48:54.275Z,1.05
2022-09-25T14:51:25.415Z,2.05
2022-09-25T14:53:54.779Z,2.03
2022-09-25T14:56:22.125Z,1.40
2022-09-25T14:58:50.009Z,4.45
2022-09-25T15:01:22.786Z,4.90
2022-09-25T15:03:49.239Z,3.53
2022-09-25T15:06:26.144Z,3.20
2022-09-25T15:08:52.710Z,4.75
2022-09-25T15:11:19.903Z,6.78
2022-09-25T15:13:46.215Z,4.03
2022-09-25T15:16:49.556Z,4.85
2022-09-25T15:19:17.802Z,3.08
2022-09-25T15:21:44.172Z,2.35
2022-09-25T15:24:13.776Z,4.47
2022-09-25T15:26:43.419Z,2.63
2022-09-25T15:29:18.034Z,4.15
2022-09-25T15:31:51.033Z,2.88
2022-09-25T15:34:20.597Z,4.38
2022-09-25T15:36:46.841Z,4.15
2022-09-25T15:39:15.113Z,2.40
2022-09-25T15:41:44.637Z,2.90
2022-09-25T15:44:31.694Z,3.13
2022-09-25T15:46:59.016Z,2.90
2022-09-25T15:49:28.231Z,5.10
2022-09-25T15:52:00.845Z,2.90
2022-09-25T15:54:46.103Z,2.47
2022-09-25T15:59:59.583Z,4.03
2022-09-25T16:02:49.873Z,4.15
2022-09-25T16:05:21.336Z,3.10
2022-09-25T16:07:47.859Z,3.90
2022-09-25T16:10:17.107Z,6.88
2022-09-25T16:12:47.776Z,4.05
2022-09-25T16:15:26.582Z,3.47
2022-09-25T16:18:05.405Z,6.45
2022-09-25T16:20:33.743Z,4.50
2022-09-25T16:23:01.917Z,45.45
2022-09-25T16:25:32.066Z,7.95
2022-09-25T16:28:19.310Z,10.23
2022-09-25T16:31:02.244Z,5.53
2022-09-25T16:33:31.165Z,13.00
2022-09-25T16:36:14.527Z,6.45
2022-09-25T16:39:01.600Z,3.63
2022-09-25T16:41:27.863Z,4.67
2022-09-25T16:44:14.002Z,3.50
2022-09-25T16:46:41.316Z,3.55
2022-09-25T16:49:07.840Z,4.22
2022-09-25T16:51:34.595Z,3.22
2022-09-25T16:54:01.205Z,2.42
2022-09-25T16:56:29.428Z,3.90
2022-09-25T16:58:56.197Z,2.55
2022-09-25T17:01:23.643Z,14.02
2022-09-25T17:03:50.429Z,10.05
2022-09-25T17:06:17.303Z,3.22
2022-09-25T17:08:43.644Z,5.60
2022-09-25T17:11:10.674Z,4.03
2022-09-25T17:13:37.408Z,44.67
2022-09-25T17:16:03.891Z,27.73
2022-09-25T17:18:30.206Z,43.72
2022-09-25T17:20:57.083Z,5.68
2022-09-25T17:23:24.137Z,10.70
2022-09-25T17:25:52.677Z,31.98
2022-09-25T17:28:18.864Z,21.90
2022-09-25T17:30:45.252Z,68.05
2022-09-25T17:33:18.810Z,13.73
2022-09-25T17:35:55.581Z,102.22
2022-09-25T17:38:21.816Z,30.70
2022-09-25T17:40:52.093Z,100.47
2022-09-25T17:43:19.547Z,19.10
2022-09-25T17:45:49.902Z,26.38
2022-09-25T17:48:17.039Z,18.48
2022-09-25T17:50:44.502Z,11.25
2022-09-25T17:53:16.049Z,4.50
2022-09-25T17:55:42.225Z,2.78
2022-09-25T17:58:08.468Z,8.93
2022-09-25T18:00:34.675Z,8.57
2022-09-25T18:03:00.970Z,6.13
2022-09-25T18:05:29.461Z,4.10
2022-09-25T18:07:55.887Z,7.57
2022-09-25T18:10:22.160Z,5.97
2022-09-25T18:12:48.426Z,7.80
2022-09-25T18:15:14.698Z,4.90
2022-09-25T18:17:41.016Z,11.50
2022-09-25T18:20:26.673Z,8.15
2022-09-25T18:22:52.964Z,5.95
2022-09-25T18:25:19.254Z,12.30
2022-09-25T18:27:45.496Z,7.38
2022-09-25T18:30:16.614Z,7.60
2022-09-25T18:32:44.098Z,9.55
2022-09-25T18:35:12.392Z,5.90
2022-09-25T18:37:38.614Z,5.57
2022-09-25T18:40:05.138Z,7.20
2022-09-25T18:42:31.577Z,3.83
2022-09-25T18:44:57.997Z,7.72
2022-09-25T18:47:24.409Z,5.95
2022-09-25T18:49:50.812Z,5.95
2022-09-25T18:52:17.098Z,8.95
2022-09-25T18:54:43.331Z,6.32
2022-09-25T18:57:10.697Z,7.50
2022-09-25T18:59:36.918Z,5.47
2022-09-25T19:02:03.611Z,6.80
2022-09-25T19:04:29.954Z,5.13
2022-09-25T19:06:56.445Z,3.78
2022-09-25T19:09:27.565Z,7.00
2022-09-25T19:11:55.022Z,3.22
2022-09-25T19:14:21.933Z,7.10
2022-09-25T19:16:48.244Z,4.60
2022-09-25T19:19:14.480Z,3.50
2022-09-25T19:21:44.698Z,5.70
2022-09-25T19:24:11.601Z,3.78
2022-09-25T19:26:38.075Z,5.70
2022-09-25T19:29:05.178Z,7.13
2022-09-25T19:31:31.515Z,4.93
2022-09-25T19:33:58.066Z,7.78
2022-09-25T19:36:26.214Z,5.97
2022-09-25T19:38:53.519Z,2.83
2022-09-25T19:41:22.635Z,4.75
2022-09-25T19:43:48.907Z,8.60
2022-09-25T19:46:17.651Z,5.82
2022-09-25T19:48:44.552Z,11.38
2022-09-25T19:51:10.877Z,8.30
2022-09-25T19:53:38.844Z,7.88
2022-09-25T19:56:05.968Z,4.80
2022-09-25T19:58:36.078Z,4.78
2022-09-25T20:01:03.035Z,4.85
2022-09-25T20:03:29.681Z,5.00
2022-09-25T20:05:56.358Z,5.93
2022-09-25T20:08:22.634Z,7.97
2022-09-25T20:10:48.814Z,9.25
2022-09-25T20:13:15.007Z,6.20
2022-09-25T20:15:42.689Z,6.70
2022-09-25T20:18:08.941Z,7.18
2022-09-25T20:20:35.729Z,6.93
2022-09-25T20:23:01.937Z,7.68
2022-09-25T20:25:28.109Z,5.22
2022-09-25T20:27:54.805Z,9.30
2022-09-25T20:30:21.703Z,3.30
2022-09-25T20:32:47.972Z,5.63
2022-09-25T20:35:14.286Z,5.30
2022-09-25T20:37:40.507Z,4.35
2022-09-25T20:40:06.964Z,5.95
2022-09-25T20:42:33.838Z,5.85
2022-09-25T20:45:00.067Z,4.95
2022-09-25T20:47:30.029Z,3.45
2022-09-25T20:49:57.307Z,9.23
2022-09-25T20:52:23.480Z,4.07
2022-09-25T20:54:49.687Z,6.13
2022-09-25T20:57:15.855Z,3.03
2022-09-25T20:59:42.037Z,10.63
2022-09-25T21:02:09.450Z,4.57
2022-09-25T21:04:36.175Z,4.03
2022-09-25T21:07:03.539Z,5.97
2022-09-25T21:09:29.903Z,7.35
2022-09-25T21:11:56.120Z,2.13
2022-09-25T21:14:23.918Z,2.60
2022-09-25T21:16:50.994Z,5.50
2022-09-25T21:19:18.188Z,4.22
2022-09-25T21:21:44.629Z,4.85
2022-09-25T21:24:13.266Z,4.03
2022-09-25T21:26:39.624Z,5.75
2022-09-25T21:29:06.245Z,4.45
2022-09-25T21:31:35.217Z,3.45
2022-09-25T21:34:01.780Z,6.60
2022-09-25T21:36:28.359Z,6.03
2022-09-25T21:38:54.814Z,4.97
2022-09-25T21:41:21.982Z,8.18
2022-09-25T21:43:48.523Z,6.80
2022-09-25T21:46:17.907Z,6.22
2022-09-25T21:48:51.563Z,7.30
2022-09-25T21:51:18.644Z,6.13
2022-09-25T21:53:45.133Z,10.68
2022-09-25T21:56:17.046Z,11.30
2022-09-25T21:58:43.299Z,4.78
2022-09-25T22:01:11.371Z,5.43
2022-09-25T22:03:38.697Z,8.15
2022-09-25T22:06:06.577Z,4.55
2022-09-25T22:08:34.778Z,4.70
2022-09-25T22:11:01.168Z,6.18
2022-09-25T22:13:28.242Z,5.05
2022-09-25T22:16:01.316Z,8.25
2022-09-25T22:18:28.249Z,9.88
2022-09-25T22:20:54.789Z,5.75
2022-09-25T22:23:21.345Z,6.88
2022-09-25T22:25:47.615Z,8.38
2022-09-25T22:28:13.854Z,6.68
2022-09-25T22:30:40.085Z,7.28
2022-09-25T22:33:06.356Z,8.77
2022-09-25T22:35:32.572Z,6.38
2022-09-25T22:37:58.763Z,10.13
2022-09-25T22:40:25.130Z,7.05
2022-09-25T22:42:51.434Z,9.88
2022-09-25T22:45:17.649Z,8.50
2022-09-25T22:47:43.853Z,9.63
2022-09-25T22:50:10.050Z,6.07
2022-09-25T22:52:36.330Z,11.05
2022-09-25T22:55:03.068Z,6.20
2022-09-25T22:57:29.369Z,13.25
2022-09-25T22:59:55.659Z,7.28
2022-09-25T23:02:21.861Z,7.53
2022-09-25T23:04:49.458Z,5.00
2022-09-25T23:07:15.773Z,5.85
2022-09-25T23:09:43.066Z,7.82
2022-09-25T23:12:09.274Z,6.55
2022-09-25T23:14:37.448Z,12.48
2022-09-25T23:17:03.730Z,6.88
2022-09-25T23:19:29.997Z,8.35
2022-09-25T23:21:56.231Z,8.45
2022-09-25T23:24:22.900Z,6.95
2022-09-25T23:26:49.162Z,6.13
2022-09-25T23:29:17.471Z,8.15
2022-09-25T23:31:44.193Z,6.35
2022-09-25T23:34:10.915Z,8.75
2022-09-25T23:36:37.401Z,8.63
2022-09-25T23:39:04.152Z,9.25
2022-09-25T23:41:35.736Z,6.78
2022-09-25T23:44:02.862Z,10.65
2022-09-25T23:46:30.978Z,6.07
2022-09-25T23:48:57.497Z,7.90
2022-09-25T23:51:25.159Z,10.02
2022-09-25T23:53:51.872Z,5.78
2022-09-25T23:56:19.564Z,6.32
2022-09-25T23:58:46.092Z,7.57
